sensor_id;sensor_type;location;lat;lon;timestamp;pressure;altitude;pressure_sealevel;temperature;humidity
36378;BME280;22402;42.746;23.606;2023-05-19T00:00:34;93648.13;;;13.95;97.12
36378;BME280;22402;42.746;23.606;2023-05-19T00:03:01;93636.16;;;13.93;97.21
36378;BME280;22402;42.746;23.606;2023-05-19T00:05:27;93631.75;;;13.93;96.78
36378;BME280;22402;42.746;23.606;2023-05-19T00:07:57;93645.66;;;13.94;97.21
36378;BME280;22402;42.746;23.606;2023-05-19T00:10:24;93645.84;;;13.92;97.02
36378;BME280;22402;42.746;23.606;2023-05-19T00:12:50;93646.13;;;13.89;96.90
36378;BME280;22402;42.746;23.606;2023-05-19T00:15:15;93634.19;;;13.86;96.51
36378;BME280;22402;42.746;23.606;2023-05-19T00:17:41;93642.69;;;13.88;96.69
36378;BME280;22402;42.746;23.606;2023-05-19T00:20:07;93637.78;;;13.85;96.52
36378;BME280;22402;42.746;23.606;2023-05-19T00:22:33;93634.50;;;13.83;96.64
36378;BME280;22402;42.746;23.606;2023-05-19T00:24:58;93632.84;;;13.82;96.45
36378;BME280;22402;42.746;23.606;2023-05-19T00:27:24;93633.16;;;13.79;96.35
36378;BME280;22402;42.746;23.606;2023-05-19T00:29:49;93644.63;;;13.78;96.38
36378;BME280;22402;42.746;23.606;2023-05-19T00:32:15;93642.34;;;13.75;96.03
36378;BME280;22402;42.746;23.606;2023-05-19T00:34:40;93640.72;;;13.74;95.77
36378;BME280;22402;42.746;23.606;2023-05-19T00:37:05;93641.84;;;13.72;95.53
36378;BME280;22402;42.746;23.606;2023-05-19T00:39:31;93637.72;;;13.69;95.66
36378;BME280;22402;42.746;23.606;2023-05-19T00:41:56;93638.03;;;13.66;95.59
36378;BME280;22402;42.746;23.606;2023-05-19T00:44:22;93633.94;;;13.63;95.15
36378;BME280;22402;42.746;23.606;2023-05-19T00:46:47;93634.25;;;13.60;95.06
36378;BME280;22402;42.746;23.606;2023-05-19T00:49:13;93632.09;;;13.56;94.71
36378;BME280;22402;42.746;23.606;2023-05-19T00:51:39;93628.84;;;13.54;94.42
36378;BME280;22402;42.746;23.606;2023-05-19T00:54:05;93625.84;;;13.49;94.29
36378;BME280;22402;42.746;23.606;2023-05-19T00:56:31;93633.03;;;13.47;93.97
36378;BME280;22402;42.746;23.606;2023-05-19T00:58:57;93643.84;;;13.43;93.95
36378;BME280;22402;42.746;23.606;2023-05-19T01:01:23;93633.66;;;13.40;93.88
36378;BME280;22402;42.746;23.606;2023-05-19T01:03:50;93630.38;;;13.38;93.54
36378;BME280;22402;42.746;23.606;2023-05-19T01:06:17;93620.53;;;13.32;93.46
36378;BME280;22402;42.746;23.606;2023-05-19T01:08:43;93630.19;;;13.32;93.13
36378;BME280;22402;42.746;23.606;2023-05-19T01:11:08;93628.06;;;13.27;93.04
36378;BME280;22402;42.746;23.606;2023-05-19T01:13:35;93627.50;;;13.23;93.01
36378;BME280;22402;42.746;23.606;2023-05-19T01:16:11;93630.28;;;13.22;92.82
36378;BME280;22402;42.746;23.606;2023-05-19T01:18:42;93633.03;;;13.20;92.83
36378;BME280;22402;42.746;23.606;2023-05-19T01:31:39;93623.97;;;13.07;91.83
36378;BME280;22402;42.746;23.606;2023-05-19T01:34:06;93637.38;;;13.04;91.65
36378;BME280;22402;42.746;23.606;2023-05-19T01:36:33;93634.09;;;13.02;91.71
36378;BME280;22402;42.746;23.606;2023-05-19T01:39:01;93635.38;;;12.97;91.53
36378;BME280;22402;42.746;23.606;2023-05-19T01:41:26;93636.34;;;12.96;91.57
36378;BME280;22402;42.746;23.606;2023-05-19T01:43:55;93635.81;;;12.93;91.60
36378;BME280;22402;42.746;23.606;2023-05-19T01:46:21;93636.00;;;12.91;91.69
36378;BME280;22402;42.746;23.606;2023-05-19T01:48:47;93643.00;;;12.91;91.33
36378;BME280;22402;42.746;23.606;2023-05-19T01:51:14;93654.63;;;12.88;91.30
36378;BME280;22402;42.746;23.606;2023-05-19T01:53:39;93643.63;;;12.85;91.15
36378;BME280;22402;42.746;23.606;2023-05-19T01:56:05;93641.16;;;12.83;91.12
36378;BME280;22402;42.746;23.606;2023-05-19T01:58:43;93629.22;;;12.81;91.37
36378;BME280;22402;42.746;23.606;2023-05-19T02:01:25;93630.34;;;12.78;91.73
36378;BME280;22402;42.746;23.606;2023-05-19T02:12:36;93639.47;;;12.74;92.01
36378;BME280;22402;42.746;23.606;2023-05-19T02:17:35;93640.41;;;12.73;92.41
36378;BME280;22402;42.746;23.606;2023-05-19T02:20:03;93644.03;;;12.72;92.33
36378;BME280;22402;42.746;23.606;2023-05-19T02:22:30;93631.94;;;12.71;92.31
36378;BME280;22402;42.746;23.606;2023-05-19T02:24:55;93631.13;;;12.70;92.49
36378;BME280;22402;42.746;23.606;2023-05-19T02:27:22;93625.34;;;12.67;92.19
36378;BME280;22402;42.746;23.606;2023-05-19T02:29:47;93637.16;;;12.71;92.06
36378;BME280;22402;42.746;23.606;2023-05-19T02:32:13;93639.09;;;12.69;91.95
36378;BME280;22402;42.746;23.606;2023-05-19T02:34:39;93642.69;;;12.68;91.85
36378;BME280;22402;42.746;23.606;2023-05-19T02:37:06;93646.25;;;12.67;91.62
36378;BME280;22402;42.746;23.606;2023-05-19T02:39:31;93643.00;;;12.65;91.33
36378;BME280;22402;42.746;23.606;2023-05-19T02:42:00;93642.31;;;12.63;91.58
36378;BME280;22402;42.746;23.606;2023-05-19T02:44:25;93646.22;;;12.59;91.21
36378;BME280;22402;42.746;23.606;2023-05-19T02:46:51;93648.84;;;12.59;91.06
36378;BME280;22402;42.746;23.606;2023-05-19T02:51:45;93658.75;;;12.55;90.88
36378;BME280;22402;42.746;23.606;2023-05-19T02:54:11;93643.47;;;12.42;90.55
36378;BME280;22402;42.746;23.606;2023-05-19T02:56:36;93656.59;;;12.50;90.40
36378;BME280;22402;42.746;23.606;2023-05-19T02:59:01;93671.50;;;12.50;90.29
36378;BME280;22402;42.746;23.606;2023-05-19T03:01:27;93671.78;;;12.47;90.38
36378;BME280;22402;42.746;23.606;2023-05-19T03:03:52;93676.19;;;12.46;90.09
36378;BME280;22402;42.746;23.606;2023-05-19T03:06:18;93663.44;;;12.43;90.15
36378;BME280;22402;42.746;23.606;2023-05-19T03:08:43;93658.34;;;12.42;90.45
36378;BME280;22402;42.746;23.606;2023-05-19T03:11:09;93663.69;;;12.40;90.44
36378;BME280;22402;42.746;23.606;2023-05-19T03:13:34;93666.47;;;12.39;90.46
36378;BME280;22402;42.746;23.606;2023-05-19T03:16:00;93664.97;;;12.36;90.36
36378;BME280;22402;42.746;23.606;2023-05-19T03:18:26;93669.38;;;12.36;90.46
36378;BME280;22402;42.746;23.606;2023-05-19T03:20:51;93666.09;;;12.34;90.33
36378;BME280;22402;42.746;23.606;2023-05-19T03:23:19;93672.31;;;12.32;90.52
36378;BME280;22402;42.746;23.606;2023-05-19T03:25:45;93669.81;;;12.31;90.75
36378;BME280;22402;42.746;23.606;2023-05-19T03:28:10;93661.97;;;12.31;90.58
36378;BME280;22402;42.746;23.606;2023-05-19T03:30:36;93669.69;;;12.32;90.85
36378;BME280;22402;42.746;23.606;2023-05-19T03:33:01;93680.16;;;12.32;91.22
36378;BME280;22402;42.746;23.606;2023-05-19T03:35:27;93674.91;;;12.32;91.47
36378;BME280;22402;42.746;23.606;2023-05-19T03:37:53;93670.00;;;12.29;91.47
36378;BME280;22402;42.746;23.606;2023-05-19T03:40:18;93678.06;;;12.36;91.33
36378;BME280;22402;42.746;23.606;2023-05-19T03:42:43;93671.84;;;12.37;91.97
36378;BME280;22402;42.746;23.606;2023-05-19T03:45:09;93677.06;;;12.37;91.87
36378;BME280;22402;42.746;23.606;2023-05-19T03:47:35;93686.41;;;12.40;91.80
36378;BME280;22402;42.746;23.606;2023-05-19T03:50:00;93676.78;;;12.40;91.77
36378;BME280;22402;42.746;23.606;2023-05-19T03:52:26;93679.25;;;12.42;91.85
36378;BME280;22402;42.746;23.606;2023-05-19T03:54:52;93675.53;;;12.44;92.12
36378;BME280;22402;42.746;23.606;2023-05-19T03:57:17;93677.00;;;12.47;92.26
36378;BME280;22402;42.746;23.606;2023-05-19T03:59:43;93685.50;;;12.49;92.26
36378;BME280;22402;42.746;23.606;2023-05-19T04:02:08;93681.13;;;12.49;92.35
36378;BME280;22402;42.746;23.606;2023-05-19T04:04:34;93688.00;;;12.50;92.46
36378;BME280;22402;42.746;23.606;2023-05-19T04:06:59;93686.06;;;12.52;92.47
36378;BME280;22402;42.746;23.606;2023-05-19T04:09:25;93700.59;;;12.55;92.17
36378;BME280;22402;42.746;23.606;2023-05-19T04:11:50;93705.69;;;12.57;92.24
36378;BME280;22402;42.746;23.606;2023-05-19T04:14:16;93705.53;;;12.58;92.52
36378;BME280;22402;42.746;23.606;2023-05-19T04:16:41;93712.25;;;12.61;92.44
36378;BME280;22402;42.746;23.606;2023-05-19T04:19:07;93716.25;;;12.65;92.92
36378;BME280;22402;42.746;23.606;2023-05-19T04:21:32;93722.81;;;12.69;93.10
36378;BME280;22402;42.746;23.606;2023-05-19T04:23:58;93714.81;;;12.70;93.32
36378;BME280;22402;42.746;23.606;2023-05-19T04:26:24;93726.31;;;12.77;93.94
36378;BME280;22402;42.746;23.606;2023-05-19T04:28:51;93725.88;;;12.82;94.43
36378;BME280;22402;42.746;23.606;2023-05-19T04:31:18;93712.50;;;12.85;94.57
36378;BME280;22402;42.746;23.606;2023-05-19T04:33:46;93715.44;;;12.90;95.12
36378;BME280;22402;42.746;23.606;2023-05-19T04:36:12;93714.34;;;12.93;95.38
36378;BME280;22402;42.746;23.606;2023-05-19T04:38:38;93712.91;;;12.98;95.70
36378;BME280;22402;42.746;23.606;2023-05-19T04:41:07;93713.28;;;13.04;96.12
36378;BME280;22402;42.746;23.606;2023-05-19T04:43:35;93715.28;;;13.10;96.62
36378;BME280;22402;42.746;23.606;2023-05-19T04:46:02;93713.69;;;13.17;96.55
36378;BME280;22402;42.746;23.606;2023-05-19T04:48:30;93720.28;;;13.21;97.03
36378;BME280;22402;42.746;23.606;2023-05-19T04:50:56;93720.66;;;13.26;96.93
36378;BME280;22402;42.746;23.606;2023-05-19T04:53:21;93718.41;;;13.31;97.83
36378;BME280;22402;42.746;23.606;2023-05-19T04:55:50;93719.72;;;13.35;98.06
36378;BME280;22402;42.746;23.606;2023-05-19T04:58:15;93716.53;;;13.41;98.24
36378;BME280;22402;42.746;23.606;2023-05-19T05:00:41;93717.03;;;13.45;98.70
36378;BME280;22402;42.746;23.606;2023-05-19T05:03:06;93724.41;;;13.50;98.86
36378;BME280;22402;42.746;23.606;2023-05-19T05:05:33;93708.38;;;13.53;99.05
36378;BME280;22402;42.746;23.606;2023-05-19T05:07:59;93713.97;;;13.58;99.28
36378;BME280;22402;42.746;23.606;2023-05-19T05:10:25;93712.66;;;13.62;99.48
36378;BME280;22402;42.746;23.606;2023-05-19T05:12:50;93714.03;;;13.66;99.43
36378;BME280;22402;42.746;23.606;2023-05-19T05:15:16;93710.06;;;13.62;99.53
36378;BME280;22402;42.746;23.606;2023-05-19T05:17:42;93728.63;;;13.77;99.69
36378;BME280;22402;42.746;23.606;2023-05-19T05:20:08;93730.78;;;13.81;99.67
36378;BME280;22402;42.746;23.606;2023-05-19T05:22:34;93732.78;;;13.87;99.58
36378;BME280;22402;42.746;23.606;2023-05-19T05:25:00;93734.09;;;13.91;99.94
36378;BME280;22402;42.746;23.606;2023-05-19T05:27:26;93731.69;;;13.98;100.00
36378;BME280;22402;42.746;23.606;2023-05-19T05:29:52;93727.59;;;14.04;100.00
36378;BME280;22402;42.746;23.606;2023-05-19T05:32:17;93723.53;;;14.09;100.00
36378;BME280;22402;42.746;23.606;2023-05-19T05:34:43;93727.31;;;14.15;100.00
36378;BME280;22402;42.746;23.606;2023-05-19T05:37:09;93729.47;;;14.20;100.00
36378;BME280;22402;42.746;23.606;2023-05-19T05:39:34;93735.88;;;14.25;100.00
36378;BME280;22402;42.746;23.606;2023-05-19T05:42:00;93737.06;;;14.31;100.00
36378;BME280;22402;42.746;23.606;2023-05-19T05:44:25;93743.28;;;14.38;100.00
36378;BME280;22402;42.746;23.606;2023-05-19T05:46:51;93741.84;;;14.44;100.00
36378;BME280;22402;42.746;23.606;2023-05-19T05:49:16;93746.28;;;14.51;100.00
36378;BME280;22402;42.746;23.606;2023-05-19T05:51:42;93748.31;;;14.57;100.00
36378;BME280;22402;42.746;23.606;2023-05-19T05:54:10;93750.09;;;14.65;100.00
36378;BME280;22402;42.746;23.606;2023-05-19T05:56:36;93743.25;;;14.72;100.00
36378;BME280;22402;42.746;23.606;2023-05-19T05:59:02;93741.59;;;14.79;100.00
36378;BME280;22402;42.746;23.606;2023-05-19T06:01:27;93754.56;;;14.89;100.00
36378;BME280;22402;42.746;23.606;2023-05-19T06:03:55;93759.00;;;14.97;100.00
36378;BME280;22402;42.746;23.606;2023-05-19T06:06:20;93761.66;;;15.05;100.00
36378;BME280;22402;42.746;23.606;2023-05-19T06:08:46;93764.25;;;15.13;100.00
36378;BME280;22402;42.746;23.606;2023-05-19T06:11:11;93758.19;;;15.21;100.00
36378;BME280;22402;42.746;23.606;2023-05-19T06:13:38;93765.22;;;15.28;100.00
36378;BME280;22402;42.746;23.606;2023-05-19T06:16:05;93756.69;;;15.35;100.00
36378;BME280;22402;42.746;23.606;2023-05-19T06:18:31;93753.25;;;15.42;100.00
36378;BME280;22402;42.746;23.606;2023-05-19T06:20:56;93759.47;;;15.49;100.00
36378;BME280;22402;42.746;23.606;2023-05-19T06:23:22;93759.97;;;15.53;100.00
36378;BME280;22402;42.746;23.606;2023-05-19T06:25:48;93766.53;;;15.57;100.00
36378;BME280;22402;42.746;23.606;2023-05-19T06:28:13;93759.94;;;15.61;100.00
36378;BME280;22402;42.746;23.606;2023-05-19T06:30:39;93757.81;;;15.65;100.00
36378;BME280;22402;42.746;23.606;2023-05-19T06:33:04;93761.94;;;15.67;100.00
36378;BME280;22402;42.746;23.606;2023-05-19T06:35:29;93759.97;;;15.69;100.00
36378;BME280;22402;42.746;23.606;2023-05-19T06:37:55;93761.44;;;15.72;100.00
36378;BME280;22402;42.746;23.606;2023-05-19T06:40:21;93761.28;;;15.74;100.00
36378;BME280;22402;42.746;23.606;2023-05-19T06:42:47;93766.22;;;15.77;100.00
36378;BME280;22402;42.746;23.606;2023-05-19T06:45:13;93766.84;;;15.79;100.00
36378;BME280;22402;42.746;23.606;2023-05-19T06:47:38;93773.56;;;15.81;100.00
36378;BME280;22402;42.746;23.606;2023-05-19T06:50:09;93762.25;;;15.81;100.00
36378;BME280;22402;42.746;23.606;2023-05-19T06:52:35;93762.56;;;15.86;100.00
36378;BME280;22402;42.746;23.606;2023-05-19T06:55:01;93763.19;;;15.88;100.00
36378;BME280;22402;42.746;23.606;2023-05-19T06:57:26;93762.22;;;15.89;100.00
36378;BME280;22402;42.746;23.606;2023-05-19T06:59:51;93759.25;;;15.92;100.00
36378;BME280;22402;42.746;23.606;2023-05-19T07:02:17;93758.94;;;15.95;100.00
36378;BME280;22402;42.746;23.606;2023-05-19T07:04:42;93765.00;;;15.95;100.00
36378;BME280;22402;42.746;23.606;2023-05-19T07:07:08;93768.44;;;15.96;100.00
36378;BME280;22402;42.746;23.606;2023-05-19T07:09:33;93777.31;;;16.03;100.00
36378;BME280;22402;42.746;23.606;2023-05-19T07:11:59;93768.44;;;16.04;100.00
36378;BME280;22402;42.746;23.606;2023-05-19T07:14:25;93770.06;;;16.05;100.00
36378;BME280;22402;42.746;23.606;2023-05-19T07:16:51;93766.94;;;16.10;100.00
36378;BME280;22402;42.746;23.606;2023-05-19T07:19:17;93764.94;;;16.12;100.00
36378;BME280;22402;42.746;23.606;2023-05-19T07:21:44;93766.06;;;16.17;100.00
36378;BME280;22402;42.746;23.606;2023-05-19T07:24:10;93768.34;;;16.21;100.00
36378;BME280;22402;42.746;23.606;2023-05-19T07:26:35;93770.50;;;16.25;100.00
36378;BME280;22402;42.746;23.606;2023-05-19T07:29:01;93772.59;;;16.30;100.00
36378;BME280;22402;42.746;23.606;2023-05-19T07:31:26;93766.97;;;16.33;100.00
36378;BME280;22402;42.746;23.606;2023-05-19T07:33:52;93761.44;;;16.28;100.00
36378;BME280;22402;42.746;23.606;2023-05-19T07:36:17;93768.78;;;16.40;100.00
36378;BME280;22402;42.746;23.606;2023-05-19T07:38:44;93770.06;;;16.45;100.00
36378;BME280;22402;42.746;23.606;2023-05-19T07:41:11;93761.66;;;16.49;100.00
36378;BME280;22402;42.746;23.606;2023-05-19T07:43:36;93772.50;;;16.54;100.00
36378;BME280;22402;42.746;23.606;2023-05-19T07:46:02;93770.34;;;16.58;100.00
36378;BME280;22402;42.746;23.606;2023-05-19T07:48:28;93773.28;;;16.63;100.00
36378;BME280;22402;42.746;23.606;2023-05-19T07:50:54;93770.09;;;16.68;100.00
36378;BME280;22402;42.746;23.606;2023-05-19T07:53:19;93766.16;;;16.72;100.00
36378;BME280;22402;42.746;23.606;2023-05-19T07:55:47;93760.53;;;16.75;100.00
36378;BME280;22402;42.746;23.606;2023-05-19T07:58:12;93764.94;;;16.82;100.00
36378;BME280;22402;42.746;23.606;2023-05-19T08:00:38;93769.72;;;16.87;100.00
36378;BME280;22402;42.746;23.606;2023-05-19T08:03:03;93770.63;;;16.94;100.00
36378;BME280;22402;42.746;23.606;2023-05-19T08:05:29;93770.13;;;16.99;100.00
36378;BME280;22402;42.746;23.606;2023-05-19T08:07:55;93779.78;;;17.06;100.00
36378;BME280;22402;42.746;23.606;2023-05-19T08:10:21;93776.28;;;17.14;100.00
36378;BME280;22402;42.746;23.606;2023-05-19T08:12:47;93778.66;;;17.24;100.00
36378;BME280;22402;42.746;23.606;2023-05-19T08:15:12;93780.22;;;17.33;100.00
36378;BME280;22402;42.746;23.606;2023-05-19T08:17:38;93778.34;;;17.42;100.00
36378;BME280;22402;42.746;23.606;2023-05-19T08:20:04;93783.72;;;17.48;100.00
36378;BME280;22402;42.746;23.606;2023-05-19T08:22:32;93782.38;;;17.52;100.00
36378;BME280;22402;42.746;23.606;2023-05-19T08:24:57;93780.66;;;17.60;100.00
36378;BME280;22402;42.746;23.606;2023-05-19T08:27:23;93782.59;;;17.66;100.00
36378;BME280;22402;42.746;23.606;2023-05-19T08:29:48;93780.03;;;17.72;100.00
36378;BME280;22402;42.746;23.606;2023-05-19T08:32:14;93780.53;;;17.76;100.00
36378;BME280;22402;42.746;23.606;2023-05-19T08:34:40;93778.06;;;17.74;100.00
36378;BME280;22402;42.746;23.606;2023-05-19T08:37:05;93765.06;;;17.73;100.00
36378;BME280;22402;42.746;23.606;2023-05-19T08:39:31;93773.97;;;17.72;100.00
36378;BME280;22402;42.746;23.606;2023-05-19T08:41:58;93762.72;;;17.78;100.00
36378;BME280;22402;42.746;23.606;2023-05-19T08:44:25;93758.75;;;17.82;100.00
36378;BME280;22402;42.746;23.606;2023-05-19T08:46:53;93755.03;;;17.91;94.58
36378;BME280;22402;42.746;23.606;2023-05-19T08:49:22;93756.66;;;18.07;86.84
36378;BME280;22402;42.746;23.606;2023-05-19T08:54:52;93754.38;;;18.19;84.61
36378;BME280;22402;42.746;23.606;2023-05-19T09:18:55;93727.13;;;24.36;67.69
36378;BME280;22402;42.746;23.606;2023-05-19T09:21:28;93718.59;;;25.01;62.59
36378;BME280;22402;42.746;23.606;2023-05-19T09:23:57;93729.53;;;26.19;56.73
36378;BME280;22402;42.746;23.606;2023-05-19T09:26:23;93708.00;;;27.30;51.13
36378;BME280;22402;42.746;23.606;2023-05-19T09:28:49;93719.03;;;28.34;47.30
36378;BME280;22402;42.746;23.606;2023-05-19T09:31:15;93701.72;;;29.30;44.38
36378;BME280;22402;42.746;23.606;2023-05-19T09:33:41;93712.31;;;30.06;42.21
36378;BME280;22402;42.746;23.606;2023-05-19T09:36:07;93699.13;;;30.42;40.10
36378;BME280;22402;42.746;23.606;2023-05-19T09:38:35;93712.84;;;30.93;38.84
36378;BME280;22402;42.746;23.606;2023-05-19T09:41:01;93698.47;;;31.40;37.18
36378;BME280;22402;42.746;23.606;2023-05-19T09:43:27;93697.97;;;31.99;34.85
36378;BME280;22402;42.746;23.606;2023-05-19T09:46:03;93704.94;;;32.47;33.70
36378;BME280;22402;42.746;23.606;2023-05-19T09:48:29;93688.41;;;32.74;32.12
36378;BME280;22402;42.746;23.606;2023-05-19T09:50:54;93682.66;;;32.90;29.89
36378;BME280;22402;42.746;23.606;2023-05-19T09:53:22;93689.78;;;32.61;28.99
36378;BME280;22402;42.746;23.606;2023-05-19T09:55:49;93690.84;;;32.65;30.24
36378;BME280;22402;42.746;23.606;2023-05-19T09:58:18;93679.72;;;32.82;30.04
36378;BME280;22402;42.746;23.606;2023-05-19T10:00:45;93682.03;;;33.14;29.18
36378;BME280;22402;42.746;23.606;2023-05-19T10:03:12;93685.44;;;33.35;28.34
36378;BME280;22402;42.746;23.606;2023-05-19T10:05:38;93682.88;;;33.49;28.65
36378;BME280;22402;42.746;23.606;2023-05-19T10:08:06;93680.88;;;33.70;27.50
36378;BME280;22402;42.746;23.606;2023-05-19T10:10:36;93682.75;;;33.74;27.81
36378;BME280;22402;42.746;23.606;2023-05-19T10:13:02;93673.50;;;33.80;28.42
36378;BME280;22402;42.746;23.606;2023-05-19T10:15:31;93676.03;;;34.06;28.83
36378;BME280;22402;42.746;23.606;2023-05-19T10:17:58;93681.56;;;34.44;27.82
36378;BME280;22402;42.746;23.606;2023-05-19T10:20:25;93683.66;;;34.52;27.97
36378;BME280;22402;42.746;23.606;2023-05-19T10:22:51;93683.34;;;34.59;27.80
36378;BME280;22402;42.746;23.606;2023-05-19T10:25:16;93665.88;;;34.46;28.28
36378;BME280;22402;42.746;23.606;2023-05-19T10:27:55;93662.16;;;34.66;28.19
36378;BME280;22402;42.746;23.606;2023-05-19T10:30:33;93661.56;;;34.93;27.76
36378;BME280;22402;42.746;23.606;2023-05-19T10:33:00;93669.75;;;34.88;28.00
36378;BME280;22402;42.746;23.606;2023-05-19T10:47:22;93656.25;;;34.35;27.34
36378;BME280;22402;42.746;23.606;2023-05-19T10:49:48;93666.84;;;33.97;28.11
36378;BME280;22402;42.746;23.606;2023-05-19T10:52:20;93663.16;;;33.88;27.66
36378;BME280;22402;42.746;23.606;2023-05-19T10:54:47;93678.53;;;33.92;28.30
36378;BME280;22402;42.746;23.606;2023-05-19T10:57:16;93673.50;;;33.80;26.63
36378;BME280;22402;42.746;23.606;2023-05-19T10:59:42;93681.19;;;32.49;26.99
36378;BME280;22402;42.746;23.606;2023-05-19T11:02:40;93663.75;;;30.71;29.57
36378;BME280;22402;42.746;23.606;2023-05-19T11:05:11;93668.22;;;29.38;32.21
36378;BME280;22402;42.746;23.606;2023-05-19T11:07:57;93671.16;;;28.21;33.33
36378;BME280;22402;42.746;23.606;2023-05-19T11:10:26;93660.19;;;27.21;35.18
36378;BME280;22402;42.746;23.606;2023-05-19T11:12:51;93665.50;;;26.76;36.76
36378;BME280;22402;42.746;23.606;2023-05-19T11:15:17;93659.34;;;27.04;36.46
36378;BME280;22402;42.746;23.606;2023-05-19T11:17:47;93670.88;;;28.23;36.09
36378;BME280;22402;42.746;23.606;2023-05-19T11:20:24;93660.63;;;29.29;33.66
36378;BME280;22402;42.746;23.606;2023-05-19T11:23:16;93676.94;;;29.82;31.68
36378;BME280;22402;42.746;23.606;2023-05-19T11:28:17;93664.19;;;30.47;32.58
36378;BME280;22402;42.746;23.606;2023-05-19T11:30:46;93665.00;;;31.21;31.43
36378;BME280;22402;42.746;23.606;2023-05-19T11:33:14;93685.81;;;31.51;31.48
36378;BME280;22402;42.746;23.606;2023-05-19T11:35:45;93681.53;;;31.65;31.85
36378;BME280;22402;42.746;23.606;2023-05-19T11:38:11;93679.03;;;32.40;30.46
36378;BME280;22402;42.746;23.606;2023-05-19T11:40:38;93705.41;;;33.34;29.42
36378;BME280;22402;42.746;23.606;2023-05-19T11:43:04;93721.06;;;33.37;29.41
36378;BME280;22402;42.746;23.606;2023-05-19T11:45:30;93721.94;;;32.37;31.64
36378;BME280;22402;42.746;23.606;2023-05-19T11:47:57;93722.84;;;31.08;33.67
36378;BME280;22402;42.746;23.606;2023-05-19T11:50:23;93718.03;;;29.78;35.61
36378;BME280;22402;42.746;23.606;2023-05-19T11:52:50;93736.59;;;28.42;37.69
36378;BME280;22402;42.746;23.606;2023-05-19T11:55:17;93742.97;;;27.11;40.55
36378;BME280;22402;42.746;23.606;2023-05-19T11:57:55;93746.97;;;25.98;43.22
36378;BME280;22402;42.746;23.606;2023-05-19T12:00:28;93735.47;;;25.13;45.41
36378;BME280;22402;42.746;23.606;2023-05-19T12:02:55;93714.16;;;25.25;47.33
36378;BME280;22402;42.746;23.606;2023-05-19T12:05:22;93710.22;;;26.40;45.28
36378;BME280;22402;42.746;23.606;2023-05-19T12:07:48;93702.28;;;26.97;43.94
36378;BME280;22402;42.746;23.606;2023-05-19T12:10:26;93710.16;;;27.78;43.42
36378;BME280;22402;42.746;23.606;2023-05-19T12:12:53;93696.69;;;29.39;40.55
36378;BME280;22402;42.746;23.606;2023-05-19T12:15:21;93694.19;;;30.76;38.54
36378;BME280;22402;42.746;23.606;2023-05-19T12:17:55;93690.91;;;32.24;36.50
36378;BME280;22402;42.746;23.606;2023-05-19T12:20:22;93685.59;;;33.54;34.78
36378;BME280;22402;42.746;23.606;2023-05-19T12:22:47;93688.94;;;34.67;32.83
36378;BME280;22402;42.746;23.606;2023-05-19T12:25:14;93694.66;;;35.52;31.75
36378;BME280;22402;42.746;23.606;2023-05-19T12:27:42;93693.25;;;36.25;31.08
36378;BME280;22402;42.746;23.606;2023-05-19T12:30:08;93695.84;;;37.18;29.58
36378;BME280;22402;42.746;23.606;2023-05-19T12:32:34;93695.28;;;37.94;28.29
36378;BME280;22402;42.746;23.606;2023-05-19T12:35:04;93703.28;;;37.40;27.87
36378;BME280;22402;42.746;23.606;2023-05-19T12:37:33;93711.78;;;36.04;28.79
36378;BME280;22402;42.746;23.606;2023-05-19T12:40:00;93685.03;;;34.49;30.48
36378;BME280;22402;42.746;23.606;2023-05-19T12:42:27;93681.47;;;33.17;32.04
36378;BME280;22402;42.746;23.606;2023-05-19T12:44:56;93672.38;;;33.03;33.44
36378;BME280;22402;42.746;23.606;2023-05-19T12:47:28;93678.91;;;33.80;32.77
36378;BME280;22402;42.746;23.606;2023-05-19T12:50:05;93680.25;;;33.44;32.47
36378;BME280;22402;42.746;23.606;2023-05-19T12:52:43;93686.56;;;32.38;33.28
36378;BME280;22402;42.746;23.606;2023-05-19T12:55:09;93680.13;;;31.37;35.27
36378;BME280;22402;42.746;23.606;2023-05-19T12:57:36;93675.56;;;30.64;36.92
36378;BME280;22402;42.746;23.606;2023-05-19T13:00:04;93681.84;;;30.28;37.23
36378;BME280;22402;42.746;23.606;2023-05-19T13:02:33;93678.88;;;30.24;37.56
36378;BME280;22402;42.746;23.606;2023-05-19T13:04:59;93672.84;;;30.59;36.50
36378;BME280;22402;42.746;23.606;2023-05-19T13:07:24;93663.94;;;31.27;35.61
36378;BME280;22402;42.746;23.606;2023-05-19T13:09:50;93657.47;;;32.45;34.30
36378;BME280;22402;42.746;23.606;2023-05-19T13:12:15;93653.34;;;33.68;32.95
36378;BME280;22402;42.746;23.606;2023-05-19T13:14:41;93657.91;;;34.60;31.35
36378;BME280;22402;42.746;23.606;2023-05-19T13:17:07;93663.09;;;34.99;30.89
36378;BME280;22402;42.746;23.606;2023-05-19T13:19:33;93662.41;;;35.50;29.85
36378;BME280;22402;42.746;23.606;2023-05-19T13:21:58;93664.59;;;35.86;29.78
36378;BME280;22402;42.746;23.606;2023-05-19T13:24:24;93665.78;;;35.42;29.87
36378;BME280;22402;42.746;23.606;2023-05-19T13:26:50;93661.53;;;34.21;30.23
36378;BME280;22402;42.746;23.606;2023-05-19T13:29:15;93668.16;;;32.76;32.59
36378;BME280;22402;42.746;23.606;2023-05-19T13:31:41;93661.56;;;31.36;33.81
36378;BME280;22402;42.746;23.606;2023-05-19T13:34:06;93657.63;;;30.28;35.22
36378;BME280;22402;42.746;23.606;2023-05-19T13:36:32;93657.72;;;30.43;36.07
36378;BME280;22402;42.746;23.606;2023-05-19T13:38:59;93659.69;;;31.41;35.25
36378;BME280;22402;42.746;23.606;2023-05-19T13:41:25;93659.88;;;32.47;34.15
36378;BME280;22402;42.746;23.606;2023-05-19T13:43:58;93657.56;;;33.40;33.29
36378;BME280;22402;42.746;23.606;2023-05-19T13:46:24;93661.84;;;34.14;32.20
36378;BME280;22402;42.746;23.606;2023-05-19T13:48:50;93654.22;;;34.75;31.78